Garwin, Iowa
Current Conditions -  °F | °C
As of 9:53 AM on Friday 28 Nov 2014 (Local Time) from KMIW Reporting Station
Clear Clear  
Wind Chill: -14°   Ceiling: Unl
Heat Index: -7°   Visibility: 10mi
Dew Point: -9°   Wind: 13mph
Humidity: 85%   Direction: 140°SE
Pressure: 29.95"   Gusts: NA
Location:  42.09°N, 92.68°W
Report Text: KMIW 281553Z AUTO 14011KT 10SM CLR M07/M09 A2995 RMK AO2 SLP161 T10671089
Loading
Personal Weather Stations






























Interactive Weather Map New forecast layout! Learn more

10-Day Weather Forecast

Advertisements
Track Severe Weather on mobile